Time;durP1;ratioP1;P1;durP2;ratioP2;P2;SDS_P1;SDS_P2;PMS_P1;PMS_P2;Temp;Humidity;BMP_temperature;BMP_pressure;BME280_temperature;BME280_humidity;BME280_pressure;Samples;Min_cycle;Max_cycle;Signal;HPM_P1;HPM_P2
2023/04/19 00:01:27;;;;;;;4.40;2.77;;;9.60;99.90;9.40;101427.00;;;;4957802;28;103556;-65
2023/04/19 00:03:54;;;;;;;5.60;2.67;;;9.50;99.90;9.40;101424.00;;;;4956128;28;82818;-66
2023/04/19 00:06:20;;;;;;;4.80;2.33;;;9.50;99.90;9.40;101425.00;;;;4953152;28;83720;-66
2023/04/19 00:08:46;;;;;;;2.93;2.60;;;9.50;99.90;9.40;101414.00;;;;4954377;28;84357;-64
2023/04/19 00:11:12;;;;;;;3.47;2.20;;;9.50;99.90;9.40;101418.00;;;;4952407;28;111324;-66
2023/04/19 00:13:37;;;;;;;3.80;2.13;;;9.50;99.90;9.30;101418.00;;;;4957518;28;82841;-65
2023/04/19 00:16:04;;;;;;;3.07;2.77;;;9.40;99.90;9.30;101414.00;;;;4952438;28;112574;-64
2023/04/19 00:18:30;;;;;;;5.73;3.03;;;9.40;99.90;9.30;101415.00;;;;4953764;28;89026;-64
2023/04/19 00:20:55;;;;;;;5.50;3.33;;;9.40;99.90;9.20;101417.00;;;;4955384;28;110313;-64
2023/04/19 00:23:21;;;;;;;2.53;2.27;;;9.50;99.90;9.20;101406.00;;;;4953249;28;107365;-66
2023/04/19 00:25:48;;;;;;;2.77;2.30;;;9.30;99.90;9.20;101409.00;;;;4953519;28;83738;-66
2023/04/19 00:28:14;;;;;;;8.77;3.20;;;9.30;99.90;9.10;101400.00;;;;4952876;28;112944;-65
2023/04/19 00:30:39;;;;;;;2.50;2.30;;;9.30;99.90;9.10;101403.00;;;;4953439;28;83594;-64
2023/04/19 00:33:11;;;;;;;4.37;3.40;;;9.20;99.90;9.10;101403.00;;;;4956104;28;110041;-64
2023/04/19 00:35:38;;;;;;;5.07;3.17;;;9.20;99.90;9.00;101406.00;;;;4954639;28;83176;-65
2023/04/19 00:38:04;;;;;;;2.50;1.87;;;9.10;99.90;9.00;101395.00;;;;4951730;28;89838;-65
2023/04/19 00:40:31;;;;;;;4.47;2.33;;;9.10;99.90;9.00;101391.00;;;;4956136;28;108797;-65
2023/04/19 00:42:56;;;;;;;4.27;3.00;;;9.10;99.90;9.00;101394.00;;;;4957425;28;82696;-64
2023/04/19 00:45:22;;;;;;;4.10;2.57;;;9.10;99.90;8.90;101390.00;;;;4955169;28;111629;-64
2023/04/19 00:47:48;;;;;;;8.57;2.60;;;9.00;99.90;8.90;101382.00;;;;4951631;28;91318;-65
2023/04/19 00:50:14;;;;;;;4.53;2.40;;;9.00;99.90;8.90;101379.00;;;;4957342;28;82855;-64
2023/04/19 00:52:40;;;;;;;3.67;3.30;;;9.00;99.90;8.90;101374.00;;;;4954403;28;109817;-66
2023/04/19 00:55:07;;;;;;;6.13;2.83;;;9.00;99.90;8.90;101379.00;;;;4958353;28;83712;-64
2023/04/19 00:57:32;;;;;;;3.53;3.13;;;9.00;99.90;8.90;101369.00;;;;4957501;28;84116;-65
2023/04/19 00:59:58;;;;;;;3.50;2.60;;;9.00;99.90;8.80;101376.00;;;;4952561;28;109401;-64
2023/04/19 01:02:24;;;;;;;5.73;3.53;;;9.00;99.90;8.90;101376.00;;;;4956636;28;108953;-64
2023/04/19 01:04:50;;;;;;;2.93;2.60;;;8.90;99.90;8.80;101360.00;;;;4950519;28;82600;-64
2023/04/19 01:07:18;;;;;;;3.97;2.20;;;8.90;99.90;8.80;101363.00;;;;4954580;28;101197;-64
2023/04/19 01:09:45;;;;;;;2.50;2.30;;;8.90;99.90;8.80;101371.00;;;;4952904;28;84230;-64
2023/04/19 01:12:10;;;;;;;4.07;2.33;;;8.90;99.90;8.80;101376.00;;;;4954198;28;81993;-64
2023/04/19 01:14:36;;;;;;;2.17;1.73;;;8.80;99.90;8.70;101377.00;;;;4952817;28;83728;-65
2023/04/19 01:17:02;;;;;;;2.83;2.13;;;8.80;99.90;8.70;101376.00;;;;4953718;28;112479;-65
2023/04/19 01:19:27;;;;;;;4.40;2.83;;;8.80;99.90;8.70;101366.00;;;;4956038;28;110803;-64
2023/04/19 01:21:55;;;;;;;4.47;3.30;;;8.80;99.90;8.70;101365.00;;;;4955550;28;109586;-64
2023/04/19 01:24:20;;;;;;;2.90;2.33;;;8.80;99.90;8.60;101357.00;;;;4951805;28;82776;-63
2023/04/19 01:26:46;;;;;;;4.07;2.90;;;8.70;99.90;8.60;101366.00;;;;4949598;28;113003;-64
2023/04/19 01:29:12;;;;;;;4.03;2.93;;;8.70;99.90;8.60;101364.00;;;;4956885;28;82747;-65
2023/04/19 01:31:38;;;;;;;5.67;2.90;;;8.70;99.90;8.50;101363.00;;;;4953193;28;84366;-65
2023/04/19 01:34:03;;;;;;;2.90;2.57;;;8.70;99.90;8.50;101361.00;;;;4954410;28;82770;-66
2023/04/19 01:36:29;;;;;;;7.33;3.93;;;8.60;99.90;8.50;101357.00;;;;4956501;28;82844;-66
2023/04/19 01:38:56;;;;;;;4.13;3.30;;;8.60;99.90;8.50;101351.00;;;;4954705;28;82860;-65
2023/04/19 01:41:25;;;;;;;3.97;2.57;;;8.60;99.90;8.50;101363.00;;;;4955181;28;107041;-66
2023/04/19 01:43:51;;;;;;;5.90;3.70;;;8.60;99.90;8.40;101358.00;;;;4959644;28;83866;-64
2023/04/19 01:46:17;;;;;;;3.93;2.57;;;8.50;99.90;8.40;101357.00;;;;4957980;28;104977;-65
2023/04/19 01:48:43;;;;;;;3.43;3.10;;;8.50;99.90;8.40;101351.00;;;;4959251;28;110060;-65
2023/04/19 01:51:08;;;;;;;3.27;2.67;;;8.50;99.90;8.40;101352.00;;;;4958535;28;82868;-65
2023/04/19 01:53:34;;;;;;;3.87;3.03;;;8.50;99.90;8.40;101345.00;;;;4954684;28;111943;-65
2023/04/19 01:56:00;;;;;;;4.80;3.33;;;8.50;99.90;8.40;101350.00;;;;4960934;28;113333;-66
2023/04/19 01:58:25;;;;;;;3.40;2.63;;;8.40;99.90;8.30;101344.00;;;;4954968;28;109862;-65
2023/04/19 02:00:51;;;;;;;2.80;2.60;;;8.40;99.90;8.30;101341.00;;;;4951782;28;109572;-65
2023/04/19 02:03:17;;;;;;;3.47;2.40;;;8.40;99.90;8.30;101351.00;;;;4953230;28;111811;-66
2023/04/19 02:05:42;;;;;;;4.73;3.20;;;8.40;99.90;8.30;101350.00;;;;4958613;28;105506;-64
2023/04/19 02:08:08;;;;;;;4.67;2.80;;;8.40;99.90;8.30;101349.00;;;;4956071;28;83522;-65
2023/04/19 02:10:34;;;;;;;4.13;3.13;;;8.30;99.90;8.20;101340.00;;;;4957240;28;109331;-64
2023/04/19 02:12:59;;;;;;;10.57;3.67;;;8.30;99.90;8.20;101350.00;;;;4954531;28;96267;-65
2023/04/19 02:15:25;;;;;;;5.43;3.47;;;8.40;99.90;8.20;101348.00;;;;4953445;28;82721;-64
2023/04/19 02:17:50;;;;;;;5.20;3.93;;;8.30;99.90;8.10;101348.00;;;;4954981;28;98937;-64
2023/04/19 02:20:16;;;;;;;4.90;3.33;;;8.30;99.90;8.10;101344.00;;;;4957053;28;105118;-65
2023/04/19 02:22:42;;;;;;;4.83;3.30;;;8.20;99.90;8.10;101344.00;;;;4956461;28;111880;-65
2023/04/19 02:25:08;;;;;;;3.63;3.13;;;8.60;99.90;8.10;101345.00;;;;4959005;28;83462;-64
2023/04/19 02:27:34;;;;;;;4.23;3.27;;;8.20;99.90;8.10;101347.00;;;;4974935;28;82887;-64
2023/04/19 02:30:00;;;;;;;6.50;3.57;;;8.20;99.90;8.10;101326.00;;;;4955549;28;107462;-65
2023/04/19 02:32:25;;;;;;;5.33;3.37;;;8.20;99.90;8.00;101337.00;;;;4957289;28;113772;-65
2023/04/19 02:34:51;;;;;;;3.53;2.50;;;8.20;99.90;8.00;101332.00;;;;4953966;28;84361;-64
2023/04/19 02:37:17;;;;;;;6.27;4.13;;;8.10;99.90;8.00;101333.00;;;;4951180;28;110095;-65
2023/04/19 02:39:44;;;;;;;4.00;3.63;;;8.10;99.90;8.00;101330.00;;;;4957828;28;82859;-64
2023/04/19 02:42:10;;;;;;;3.00;2.73;;;8.10;99.90;7.90;101334.00;;;;4957028;28;84204;-65
2023/04/19 02:44:35;;;;;;;5.40;3.37;;;8.10;99.90;7.90;101321.00;;;;4954690;28;111993;-66
2023/04/19 02:47:01;;;;;;;5.30;3.33;;;8.10;99.90;7.90;101329.00;;;;4956316;28;110136;-66
2023/04/19 02:49:31;;;;;;;3.90;3.43;;;8.00;99.90;7.90;101322.00;;;;4958711;28;109046;-66
2023/04/19 02:51:57;;;;;;;4.83;3.10;;;8.00;99.90;7.90;101316.00;;;;4961345;28;82933;-64
2023/04/19 02:54:23;;;;;;;5.90;3.03;;;8.00;99.90;7.80;101323.00;;;;4955703;28;111907;-66
2023/04/19 02:56:48;;;;;;;4.77;3.23;;;8.00;99.90;7.80;101311.00;;;;4952949;28;109155;-65
2023/04/19 02:59:14;;;;;;;2.93;2.57;;;8.00;99.90;7.80;101309.00;;;;4952359;28;108990;-65
2023/04/19 03:01:40;;;;;;;6.30;3.37;;;7.90;99.90;7.80;101306.00;;;;4952797;28;83699;-65
2023/04/19 03:04:05;;;;;;;3.73;3.40;;;7.90;99.90;7.80;101310.00;;;;4954623;28;112271;-66
2023/04/19 03:06:31;;;;;;;6.20;3.20;;;7.90;99.90;7.80;101301.00;;;;4957918;28;110591;-65
2023/04/19 03:08:57;;;;;;;4.00;2.93;;;7.90;99.90;7.80;101300.00;;;;4957263;28;109145;-65
2023/04/19 03:11:22;;;;;;;4.50;2.27;;;8.00;99.90;7.80;101298.00;;;;4955675;28;111338;-65
2023/04/19 03:13:48;;;;;;;5.40;3.03;;;7.90;99.90;7.80;101295.00;;;;4957684;28;96187;-65
2023/04/19 03:16:13;;;;;;;2.83;2.50;;;7.90;99.90;7.70;101298.00;;;;4956599;28;110528;-64
2023/04/19 03:18:39;;;;;;;5.83;2.53;;;7.90;99.90;7.70;101292.00;;;;4959418;28;108760;-64
2023/04/19 03:21:08;;;;;;;4.27;3.03;;;7.80;99.90;7.70;101293.00;;;;4955550;28;112422;-65
2023/04/19 03:23:33;;;;;;;2.33;2.13;;;7.90;99.90;7.70;101287.00;;;;4960573;28;83737;-66
2023/04/19 03:25:59;;;;;;;4.60;2.30;;;7.80;99.90;7.70;101288.00;;;;4971999;28;111096;-64
2023/04/19 03:28:25;;;;;;;3.27;1.93;;;7.80;99.90;7.60;101282.00;;;;4955733;28;108501;-65
2023/04/19 03:30:50;;;;;;;2.73;1.93;;;7.70;99.90;7.60;101282.00;;;;4953478;28;84000;-65
2023/04/19 03:33:16;;;;;;;2.80;2.17;;;7.70;99.90;7.60;101286.00;;;;4952906;28;112933;-65
2023/04/19 03:35:43;;;;;;;3.10;2.37;;;7.70;99.90;7.60;101286.00;;;;4953226;28;110662;-66
2023/04/19 03:38:09;;;;;;;3.23;2.33;;;7.70;99.90;7.50;101284.00;;;;4956624;28;82187;-65
2023/04/19 03:40:37;;;;;;;4.40;2.47;;;7.70;99.90;7.50;101287.00;;;;4953754;28;101821;-64
2023/04/19 03:43:03;;;;;;;4.23;2.70;;;7.60;99.90;7.40;101289.00;;;;4953249;28;83245;-64
2023/04/19 03:45:29;;;;;;;2.17;1.97;;;8.20;99.90;7.40;101294.00;;;;4959835;28;85030;-65
2023/04/19 03:47:55;;;;;;;4.30;2.37;;;7.50;99.90;7.40;101287.00;;;;4961844;28;82610;-66
2023/04/19 03:50:20;;;;;;;2.50;2.30;;;7.90;99.90;7.30;101289.00;;;;4959023;28;112886;-64
2023/04/19 03:52:46;;;;;;;4.43;2.27;;;7.50;99.90;7.30;101296.00;;;;4957132;28;112091;-65
2023/04/19 03:55:12;;;;;;;10.13;1.70;;;7.40;99.90;7.30;101294.00;;;;4954345;28;111623;-64
2023/04/19 03:57:38;;;;;;;1.80;1.67;;;7.70;99.90;7.30;101289.00;;;;4953152;28;83048;-64
2023/04/19 04:00:08;;;;;;;2.17;1.27;;;7.40;99.90;7.30;101297.00;;;;4952660;28;83262;-65
2023/04/19 04:02:38;;;;;;;3.20;1.77;;;7.40;99.90;7.20;101290.00;;;;4953545;28;82940;-66
2023/04/19 04:05:05;;;;;;;1.50;1.40;;;7.40;99.90;7.20;101289.00;;;;4956044;28;82775;-66
2023/04/19 04:07:31;;;;;;;4.67;2.20;;;7.30;99.90;7.10;101288.00;;;;4957520;28;82886;-65
2023/04/19 04:09:56;;;;;;;6.07;1.73;;;7.80;99.90;7.10;101287.00;;;;4952205;28;111792;-65
2023/04/19 04:12:22;;;;;;;2.70;1.70;;;7.70;99.90;7.10;101286.00;;;;4953413;28;112738;-64
2023/04/19 04:14:47;;;;;;;2.23;1.87;;;7.20;99.90;7.00;101281.00;;;;4955273;28;109843;-64
2023/04/19 04:17:13;;;;;;;2.80;1.60;;;7.20;99.90;7.00;101293.00;;;;4953403;28;109222;-64
2023/04/19 04:19:39;;;;;;;2.97;1.53;;;7.10;99.90;6.90;101283.00;;;;4954384;28;84015;-65
2023/04/19 04:22:05;;;;;;;2.07;1.50;;;6.50;99.90;6.90;101296.00;;;;4955967;28;111820;-65
2023/04/19 04:24:37;;;;;;;1.20;1.20;;;7.20;99.90;6.90;101298.00;;;;4956114;28;82983;-64
2023/04/19 04:27:03;;;;;;;3.13;1.63;;;7.30;99.90;6.90;101300.00;;;;4959733;28;82139;-65
2023/04/19 04:29:31;;;;;;;3.60;1.80;;;7.00;99.90;6.80;101306.00;;;;4951666;28;110824;-65
2023/04/19 04:31:57;;;;;;;2.67;1.83;;;7.00;99.90;6.70;101303.00;;;;4951565;28;83119;-65
2023/04/19 04:34:23;;;;;;;2.23;1.90;;;6.90;99.90;6.60;101296.00;;;;4954759;28;92347;-65
2023/04/19 04:36:49;;;;;;;4.00;2.87;;;6.80;99.90;6.50;101298.00;;;;4954200;28;83073;-66
2023/04/19 04:39:15;;;;;;;4.80;3.33;;;7.10;99.90;6.40;101294.00;;;;4957150;28;83677;-63
2023/04/19 04:41:41;;;;;;;3.07;2.73;;;6.60;99.90;6.30;101303.00;;;;4953003;28;83804;-65
2023/04/19 04:44:07;;;;;;;2.30;2.00;;;6.90;99.90;6.30;101288.00;;;;4953864;28;82894;-65
2023/04/19 04:46:34;;;;;;;2.20;1.77;;;6.50;99.90;6.20;101291.00;;;;4950875;28;82859;-64
2023/04/19 04:49:00;;;;;;;4.50;2.17;;;6.50;99.90;6.20;101295.00;;;;4953204;28;83637;-65
2023/04/19 04:51:26;;;;;;;3.87;1.73;;;6.40;99.90;6.20;101295.00;;;;4951558;28;112769;-63
2023/04/19 04:53:51;;;;;;;1.67;1.53;;;6.30;99.90;6.10;101297.00;;;;4952513;28;82852;-65
2023/04/19 04:56:17;;;;;;;1.73;1.40;;;6.30;99.90;6.10;101295.00;;;;4948672;28;105957;-64
2023/04/19 04:58:43;;;;;;;3.60;1.43;;;6.30;99.90;6.20;101294.00;;;;4950940;28;88833;-64
2023/04/19 05:01:08;;;;;;;4.27;1.23;;;6.40;99.90;6.20;101296.00;;;;4950425;28;113760;-65
2023/04/19 05:03:34;;;;;;;2.33;1.47;;;6.80;99.90;6.30;101296.00;;;;4953519;28;98735;-63
2023/04/19 05:06:00;;;;;;;2.30;1.67;;;6.40;99.90;6.30;101289.00;;;;4948182;28;108809;-64
2023/04/19 05:08:26;;;;;;;1.47;1.37;;;6.50;99.90;6.40;101292.00;;;;4947892;28;113061;-65
2023/04/19 05:10:51;;;;;;;2.07;1.17;;;6.50;99.90;6.40;101292.00;;;;4951722;28;111946;-64
2023/04/19 05:13:17;;;;;;;3.77;2.00;;;6.90;99.90;6.50;101292.00;;;;4956054;28;109177;-64
2023/04/19 05:15:43;;;;;;;2.47;1.13;;;6.50;99.90;6.50;101283.00;;;;4955880;28;108328;-64
2023/04/19 05:18:08;;;;;;;0.97;0.90;;;6.70;99.90;6.60;101287.00;;;;4958610;28;113172;-64
2023/04/19 05:20:34;;;;;;;2.00;1.37;;;6.80;99.90;6.70;101281.00;;;;4957708;28;82835;-65
2023/04/19 05:23:02;;;;;;;1.00;1.00;;;6.90;99.90;6.80;101277.00;;;;4961315;28;108000;-64
2023/04/19 05:25:28;;;;;;;1.23;1.13;;;7.20;99.90;6.80;101281.00;;;;4958395;28;82953;-65
2023/04/19 05:27:53;;;;;;;1.30;1.10;;;6.90;99.90;6.90;101282.00;;;;4962835;28;113372;-65
2023/04/19 05:30:19;;;;;;;2.20;1.50;;;7.30;99.90;7.00;101275.00;;;;4957971;28;110327;-65
2023/04/19 05:32:45;;;;;;;1.10;1.00;;;7.10;99.90;7.10;101279.00;;;;4955611;28;82963;-64
2023/04/19 05:35:11;;;;;;;1.10;0.80;;;7.20;99.90;7.20;101275.00;;;;4958041;28;82779;-64
2023/04/19 05:37:38;;;;;;;1.83;1.40;;;7.30;99.90;7.30;101271.00;;;;4954604;28;118708;-64
2023/04/19 05:40:05;;;;;;;4.10;2.20;;;7.40;99.90;7.40;101269.00;;;;4953751;28;88669;-65
2023/04/19 05:42:30;;;;;;;3.00;1.67;;;7.50;99.90;7.50;101259.00;;;;4954335;28;87671;-64
2023/04/19 05:44:56;;;;;;;0.90;0.83;;;7.60;99.90;7.60;101266.00;;;;4954424;28;108625;-64
2023/04/19 05:47:22;;;;;;;1.53;1.13;;;7.70;99.90;7.80;101266.00;;;;4951978;28;119731;-65
2023/04/19 05:49:47;;;;;;;1.30;0.87;;;7.80;99.90;8.00;101275.00;;;;4953722;28;91839;-64
2023/04/19 05:52:13;;;;;;;1.23;1.13;;;7.90;99.90;8.10;101269.00;;;;4952418;28;110350;-65
2023/04/19 05:54:39;;;;;;;1.50;1.00;;;8.10;99.90;8.20;101268.00;;;;4956702;28;87905;-65
2023/04/19 05:57:05;;;;;;;1.23;1.13;;;8.20;99.90;8.30;101272.00;;;;4956079;28;88807;-65
2023/04/19 05:59:30;;;;;;;1.10;1.00;;;8.30;99.90;8.40;101271.00;;;;4958023;28;89233;-66
2023/04/19 06:01:56;;;;;;;1.73;1.10;;;8.50;99.90;8.50;101277.00;;;;4955729;28;89525;-66
2023/04/19 06:04:22;;;;;;;0.83;0.60;;;8.60;99.90;8.70;101277.00;;;;4953860;28;87160;-66
2023/04/19 06:06:48;;;;;;;1.20;1.10;;;8.70;99.90;8.70;101270.00;;;;4955513;28;117783;-66
2023/04/19 06:09:13;;;;;;;1.53;1.20;;;8.80;99.70;8.80;101263.00;;;;4957442;28;87973;-66
2023/04/19 06:11:40;;;;;;;1.50;1.37;;;8.90;99.50;8.90;101263.00;;;;4957187;28;88538;-65
2023/04/19 06:14:05;;;;;;;2.03;1.43;;;8.90;99.00;8.90;101267.00;;;;4957987;28;110124;-67
2023/04/19 06:16:31;;;;;;;2.40;1.40;;;9.00;98.90;9.00;101265.00;;;;4955330;28;117871;-63
2023/04/19 06:18:57;;;;;;;3.73;1.10;;;9.10;98.70;9.20;101261.00;;;;4954756;28;118225;-66
2023/04/19 06:21:22;;;;;;;1.50;0.90;;;9.20;98.40;9.30;101259.00;;;;4956196;28;110625;-63
2023/04/19 06:23:48;;;;;;;3.43;1.37;;;9.30;98.10;9.40;101260.00;;;;4950677;28;108764;-64
2023/04/19 06:26:14;;;;;;;2.83;1.40;;;9.50;97.30;9.50;101258.00;;;;4950228;28;118195;-65
2023/04/19 06:28:39;;;;;;;1.53;1.13;;;9.50;97.00;9.60;101251.00;;;;4953631;28;87744;-64
2023/04/19 06:31:05;;;;;;;1.40;1.30;;;10.30;96.70;9.70;101251.00;;;;4947155;28;109299;-64
2023/04/19 06:33:31;;;;;;;3.50;1.93;;;9.70;96.10;9.80;101251.00;;;;4955317;28;88291;-65
2023/04/19 06:35:56;;;;;;;4.80;2.60;;;9.80;95.90;9.90;101247.00;;;;4955373;28;119058;-66
2023/04/19 06:38:22;;;;;;;1.53;1.37;;;9.90;95.90;10.00;101255.00;;;;4951617;28;118505;-64
2023/04/19 06:40:48;;;;;;;2.47;1.20;;;10.00;95.50;10.20;101258.00;;;;4950059;28;111831;-65
2023/04/19 06:43:14;;;;;;;2.57;1.33;;;10.20;95.30;10.30;101263.00;;;;4953219;28;108658;-65
2023/04/19 06:45:39;;;;;;;2.80;1.23;;;10.30;94.90;10.40;101257.00;;;;4947583;28;89009;-65
2023/04/19 06:48:05;;;;;;;1.13;0.67;;;10.40;94.70;10.60;101256.00;;;;4948244;28;116821;-65
2023/04/19 06:50:31;;;;;;;1.40;0.90;;;10.60;94.30;10.80;101264.00;;;;4948166;28;89423;-64
2023/04/19 06:52:56;;;;;;;1.83;1.17;;;10.80;94.30;11.00;101261.00;;;;4951929;28;93121;-65
2023/04/19 06:55:22;;;;;;;0.73;0.73;;;10.90;94.20;11.20;101253.00;;;;4954920;28;116986;-64
2023/04/19 06:57:48;;;;;;;1.30;1.10;;;11.10;93.60;11.30;101253.00;;;;4954344;28;103861;-65
2023/04/19 07:00:14;;;;;;;0.60;0.60;;;11.30;93.00;11.40;101255.00;;;;4953725;28;108874;-65
2023/04/19 07:02:39;;;;;;;1.23;0.90;;;11.50;92.00;11.50;101244.00;;;;4951762;28;87781;-65
2023/04/19 07:05:06;;;;;;;0.50;0.50;;;11.60;91.60;11.60;101247.00;;;;4952415;28;117798;-65
2023/04/19 07:07:32;;;;;;;1.33;1.23;;;11.60;90.90;11.80;101254.00;;;;4954463;28;88107;-67
2023/04/19 07:09:58;;;;;;;1.63;1.17;;;11.70;90.80;11.90;101253.00;;;;4953609;28;87932;-65
2023/04/19 07:12:23;;;;;;;3.37;1.40;;;11.90;90.50;12.00;101246.00;;;;4952756;28;108061;-66
2023/04/19 07:14:55;;;;;;;1.07;0.97;;;12.00;90.40;12.20;101236.00;;;;4952124;28;117102;-64
2023/04/19 07:17:21;;;;;;;1.70;1.07;;;12.20;90.70;12.40;101239.00;;;;4954395;28;87646;-66
2023/04/19 07:19:48;;;;;;;1.60;1.23;;;12.40;90.70;12.60;101235.00;;;;4953269;28;99558;-65
2023/04/19 07:22:14;;;;;;;2.30;1.37;;;12.50;90.70;12.90;101229.00;;;;4955042;28;87741;-65
2023/04/19 07:24:40;;;;;;;1.10;0.97;;;12.70;90.70;13.10;101232.00;;;;4956233;28;90034;-65
2023/04/19 07:27:07;;;;;;;3.90;1.27;;;13.00;90.20;13.30;101229.00;;;;4951355;28;89421;-65
2023/04/19 07:29:36;;;;;;;1.23;0.80;;;13.20;89.50;13.40;101231.00;;;;4951883;28;87907;-65
2023/04/19 07:32:02;;;;;;;1.20;1.10;;;13.40;88.00;13.50;101225.00;;;;4957790;28;100890;-65
2023/04/19 07:34:28;;;;;;;2.87;1.20;;;13.20;87.50;13.60;101224.00;;;;4954121;28;98403;-66
2023/04/19 07:36:53;;;;;;;2.03;1.07;;;13.60;86.90;13.80;101216.00;;;;4954495;28;116929;-65
2023/04/19 07:39:19;;;;;;;1.10;1.00;;;13.80;85.40;14.00;101225.00;;;;4952214;28;108400;-64
2023/04/19 07:41:45;;;;;;;1.23;0.93;;;14.00;85.10;14.10;101217.00;;;;4950065;28;108735;-65
2023/04/19 07:44:12;;;;;;;1.20;0.83;;;14.10;84.70;14.30;101220.00;;;;4953624;28;87961;-65
2023/04/19 07:46:38;;;;;;;0.63;0.63;;;14.30;84.10;14.40;101218.00;;;;4952895;28;88071;-66
2023/04/19 07:49:04;;;;;;;2.05;0.98;;;14.40;81.60;14.40;101217.00;;;;4955234;28;88793;-65
2023/04/19 07:51:30;;;;;;;0.90;0.90;;;14.40;80.30;14.40;101216.00;;;;4953516;28;87766;-64
2023/04/19 07:53:56;;;;;;;1.10;0.85;;;14.50;79.60;14.40;101221.00;;;;4957287;28;88068;-65
2023/04/19 07:56:21;;;;;;;1.40;0.90;;;14.50;79.20;14.50;101220.00;;;;4952644;28;116666;-65
2023/04/19 07:58:47;;;;;;;6.95;1.55;;;14.60;79.30;14.60;101210.00;;;;4948690;28;88096;-65
2023/04/19 08:01:13;;;;;;;0.98;0.77;;;14.60;78.40;14.70;101213.00;;;;4951891;28;108963;-65
2023/04/19 08:03:38;;;;;;;3.35;1.25;;;14.30;77.20;14.70;101216.00;;;;4956621;28;118108;-65
2023/04/19 08:06:07;;;;;;;2.05;0.85;;;14.80;76.70;14.80;101208.00;;;;4954918;28;88659;-65
2023/04/19 08:08:34;;;;;;;2.53;1.35;;;14.80;76.10;14.80;101208.00;;;;4950815;28;87795;-65
2023/04/19 08:11:01;;;;;;;1.05;1.05;;;14.90;76.20;14.90;101209.00;;;;4953275;28;100255;-66
2023/04/19 08:13:27;;;;;;;2.47;1.08;;;14.90;75.30;15.00;101209.00;;;;4952705;28;89611;-65
2023/04/19 08:15:53;;;;;;;1.15;1.00;;;15.00;75.70;15.20;101202.00;;;;4956342;28;89685;-65
2023/04/19 08:18:19;;;;;;;4.95;1.13;;;15.20;75.80;15.40;101205.00;;;;4951396;28;109577;-65
2023/04/19 08:20:46;;;;;;;0.90;0.70;;;15.30;75.50;15.50;101199.00;;;;4952729;28;87998;-66
2023/04/19 08:23:12;;;;;;;2.33;1.10;;;15.50;73.40;15.50;101201.00;;;;4956957;28;96416;-66
2023/04/19 08:25:38;;;;;;;1.83;1.17;;;15.60;72.70;15.60;101193.00;;;;4955958;28;91838;-65
2023/04/19 08:28:04;;;;;;;1.38;1.27;;;15.60;72.20;15.70;101188.00;;;;4957797;28;93252;-65
2023/04/19 08:30:30;;;;;;;1.40;1.02;;;15.70;71.50;15.70;101195.00;;;;4954762;28;87144;-65
2023/04/19 08:32:56;;;;;;;1.10;0.82;;;15.70;70.70;15.80;101188.00;;;;4953705;28;89024;-65
2023/04/19 08:35:22;;;;;;;4.35;1.48;;;15.80;67.80;15.80;101196.00;;;;4962506;28;116719;-65
2023/04/19 08:37:48;;;;;;;1.52;1.33;;;15.80;68.00;15.90;101190.00;;;;4950955;28;110044;-64
2023/04/19 08:40:15;;;;;;;4.80;1.17;;;15.90;68.70;16.00;101186.00;;;;4952004;28;87762;-64
2023/04/19 08:42:42;;;;;;;2.53;1.13;;;16.00;67.20;15.90;101194.00;;;;4957954;28;88950;-65
2023/04/19 08:45:12;;;;;;;4.30;2.33;;;15.90;65.40;15.70;101196.00;;;;4954110;28;87939;-65
2023/04/19 08:47:39;;;;;;;1.00;1.00;;;15.80;66.10;15.60;101191.00;;;;4956062;28;87946;-65
2023/04/19 08:50:06;;;;;;;5.75;1.60;;;15.70;66.30;15.60;101191.00;;;;4958501;28;100759;-64
2023/04/19 08:52:35;;;;;;;1.05;0.80;;;15.70;66.70;15.70;101193.00;;;;4952619;28;88470;-65
2023/04/19 08:55:07;;;;;;;1.83;1.02;;;15.70;66.30;15.80;101183.00;;;;4949344;28;88733;-65
2023/04/19 08:57:34;;;;;;;1.90;1.30;;;15.70;66.00;16.00;101176.00;;;;4951324;28;87717;-65
2023/04/19 09:00:05;;;;;;;1.25;1.00;;;15.90;65.00;16.00;101182.00;;;;4955996;28;87817;-63
2023/04/19 09:02:49;;;;;;;2.10;1.10;;;15.90;60.10;15.90;101175.00;;;;4951765;28;89753;-64
2023/04/19 09:05:17;;;;;;;2.03;0.85;;;15.90;62.00;16.10;101185.00;;;;4945637;28;89328;-65
2023/04/19 09:07:44;;;;;;;2.13;1.27;;;16.00;62.00;16.10;101181.00;;;;4949803;28;87731;-65
2023/04/19 09:10:14;;;;;;;0.80;0.73;;;16.00;62.30;16.10;101181.00;;;;4952753;28;87863;-65
2023/04/19 09:12:40;;;;;;;1.20;1.00;;;16.10;62.20;16.00;101182.00;;;;4953931;28;88249;-65
2023/04/19 09:15:08;;;;;;;1.33;1.23;;;16.00;61.30;15.80;101171.00;;;;4950986;28;88745;-66
2023/04/19 09:17:35;;;;;;;2.55;1.17;;;15.90;61.20;15.60;101170.00;;;;4953138;28;87767;-65
2023/04/19 09:20:01;;;;;;;1.88;0.95;;;15.70;60.60;15.50;101162.00;;;;4950275;28;86984;-65
2023/04/19 09:22:26;;;;;;;1.65;1.48;;;15.50;61.00;15.60;101169.00;;;;4949208;28;109540;-65
2023/04/19 09:24:52;;;;;;;1.85;0.90;;;15.50;61.50;15.70;101163.00;;;;4952030;28;117501;-65
2023/04/19 09:27:32;;;;;;;1.55;1.33;;;15.60;60.40;15.90;101160.00;;;;4950628;28;110606;-65
2023/04/19 09:30:00;;;;;;;0.90;0.90;;;15.70;59.90;16.20;101159.00;;;;4953284;28;87783;-66
2023/04/19 09:32:27;;;;;;;2.13;1.00;;;15.90;58.60;16.30;101166.00;;;;4947671;28;88341;-65
2023/04/19 09:34:58;;;;;;;1.30;1.13;;;16.10;59.30;16.60;101157.00;;;;4950622;28;88385;-66
2023/04/19 09:37:25;;;;;;;1.45;1.30;;;16.30;58.30;16.80;101157.00;;;;4955395;28;87739;-65
2023/04/19 09:39:52;;;;;;;2.53;1.77;;;16.50;59.10;17.10;101154.00;;;;4954618;28;88056;-65
2023/04/19 09:42:19;;;;;;;3.08;2.15;;;16.70;58.20;17.10;101154.00;;;;4956046;28;88788;-66
2023/04/19 09:44:57;;;;;;;1.33;1.20;;;16.80;58.00;17.20;101152.00;;;;4953457;28;88532;-67
2023/04/19 09:47:26;;;;;;;2.40;1.48;;;16.90;58.30;17.30;101148.00;;;;4952636;28;87891;-66
2023/04/19 09:50:11;;;;;;;1.83;1.52;;;17.00;57.60;17.60;101145.00;;;;4949406;28;88061;-66
2023/04/19 09:52:37;;;;;;;2.33;1.20;;;17.20;57.80;17.80;101140.00;;;;4952448;28;110138;-68
2023/04/19 09:55:05;;;;;;;1.75;1.27;;;17.40;57.10;17.80;101128.00;;;;4954218;28;93740;-67
2023/04/19 09:57:32;;;;;;;3.90;1.75;;;17.50;56.20;17.70;101133.00;;;;4954124;28;87667;-67
2023/04/19 10:00:00;;;;;;;2.22;1.70;;;17.50;54.90;17.70;101132.00;;;;4950072;28;99715;-68
2023/04/19 10:02:34;;;;;;;2.25;1.10;;;17.40;55.00;17.80;101139.00;;;;4953233;28;88943;-67
2023/04/19 10:05:01;;;;;;;3.35;1.52;;;17.40;53.10;17.70;101137.00;;;;4957112;28;87937;-68
2023/04/19 10:07:27;;;;;;;1.55;1.45;;;17.40;53.30;17.80;101126.00;;;;4961394;28;109147;-68
2023/04/19 10:09:55;;;;;;;4.07;1.55;;;17.50;53.80;18.00;101125.00;;;;4958074;28;87001;-67
2023/04/19 10:12:25;;;;;;;0.95;0.90;;;17.60;54.10;18.20;101115.00;;;;4951653;28;88450;-68
2023/04/19 10:14:55;;;;;;;1.80;1.38;;;17.80;54.90;18.60;101111.00;;;;4954328;28;87996;-68
2023/04/19 10:17:23;;;;;;;1.77;1.35;;;18.10;52.80;18.90;101120.00;;;;4954061;28;88748;-67
2023/04/19 10:19:55;;;;;;;4.90;2.03;;;18.40;52.50;19.20;101117.00;;;;4955641;28;87636;-67
2023/04/19 10:22:22;;;;;;;2.78;1.45;;;18.70;52.30;19.50;101115.00;;;;4959244;28;105920;-68
2023/04/19 10:25:12;;;;;;;4.72;1.67;;;18.90;52.90;19.70;101107.00;;;;4986638;27;88780;-68
2023/04/19 10:27:40;;;;;;;3.15;1.42;;;19.20;52.40;19.80;101105.00;;;;4988868;27;88002;-68
2023/04/19 10:30:12;;;;;;;1.45;0.95;;;19.40;49.90;19.50;101105.00;;;;4951482;28;87821;-68
2023/04/19 10:32:40;;;;;;;1.83;1.30;;;19.20;49.10;18.90;101113.00;;;;4956069;28;89332;-67
2023/04/19 10:35:33;;;;;;;1.88;1.17;;;18.90;49.00;18.30;101110.00;;;;4955093;28;88600;-67
2023/04/19 10:38:05;;;;;;;2.38;1.20;;;18.30;49.90;17.90;101120.00;;;;4955997;28;96911;-68
2023/04/19 10:40:50;;;;;;;1.60;1.50;;;17.90;51.40;17.50;101119.00;;;;4963796;28;87895;-67
2023/04/19 10:43:17;;;;;;;1.73;1.38;;;17.50;51.50;17.20;101104.00;;;;4954397;28;89476;-68
2023/04/19 10:45:45;;;;;;;1.17;0.93;;;17.10;51.70;16.70;101105.00;;;;4950863;28;89772;-67
2023/04/19 10:48:29;;;;;;;1.50;1.30;;;16.80;51.80;16.20;101104.00;;;;4953567;28;87778;-65
2023/04/19 10:51:02;;;;;;;1.27;1.05;;;16.30;51.90;15.80;101096.00;;;;4909047;28;89461;-67